Accueil
METAR-TAF:

METAR-TAF

Aéroports :

Madrid-Torrejón, Espagne

latitude: 40-29N, longitude: 003-27W, altitude: 607 m

Observation

Le bulletin a été fait il y a 37 minutes, à 17:30 UTC
Vent 7 kt de ouest, variant entre sud-ouest et ouest/nord-ouest
Température 6°C
Humidité 61%
Pression 1005 hPa
Visibilité 10 km ou plus
Nuages épars à une hauteur de 5500 ft

METAR: LETO 051730Z 26007KT 230V290 9999 SCT055 06/M01 Q1005 NOSIG

Heure: 19:07 (18:07 UTC)

Prévision

Le bulletin a été fait il y a 1 heure et 7 minutes, à 17:00 UTC
Prévision valable du 05 à 18 UTC au 06 à 18 UTC
Vent 10 kt de ouest
Visibilité 10 km ou plus
Quelques nuages à une hauteur de 5000 ft
Probabilité 30% :
Temporairement
du 06 à 12 UTC au 06 à 18 UTC
Vent 15 kt de ouest avec des rafales jusqu'à 25 kt

TAF: LETO 051700Z 0518/0618 26010KT 9999 FEW050 TX09/0614Z TNM02/0606Z PROB30 TEMPO 0612/0618 26015G25KT

Observations et prévisions météorologiques de plus de 4000 aéroports (messages METAR et TAF).

Les stations disponibles sont représentées par des disques jaunes et rouges sur la carte.

Passer la souris dessus pour voir le nom de la station.

Cliquer dessus pour voir les observations et prévisions météorologiques.

Pour changer de carte: cliquez sur les boutons verts avec une croix noire pour zoomer, sur le bouton vert avec un tiret pour effectuer un zoom arrière, ou sur les flèches vertes pour les cartes adjacentes.


METAR-TAF: